createdAt,value
2023-04-06T00:09:49.529Z,100747.59
2023-04-06T00:19:51.792Z,100757.06
2023-04-06T00:29:54.244Z,100748.72
2023-04-06T00:39:56.650Z,100744.19
2023-04-06T00:49:59.008Z,100726.06
2023-04-06T01:00:01.201Z,100717.28
2023-04-06T01:10:04.706Z,100705.72
2023-04-06T01:20:08.679Z,100692.41
2023-04-06T01:30:12.018Z,100688.97
2023-04-06T01:40:19.897Z,100672.75
2023-04-06T01:50:25.737Z,100669.97
2023-04-06T02:00:28.303Z,100662.53
2023-04-06T02:10:31.228Z,100668.97
2023-04-06T02:20:37.001Z,100661.59
2023-04-06T02:30:39.363Z,100656.41
2023-04-06T02:40:41.994Z,100657.78
2023-04-06T02:51:10.609Z,100653.00
2023-04-06T03:01:13.733Z,100640.56
2023-04-06T03:11:17.935Z,100646.59
2023-04-06T03:21:20.967Z,100647.13
2023-04-06T03:31:27.622Z,100640.88
2023-04-06T03:41:36.248Z,100649.63
2023-04-06T03:52:06.397Z,100645.84
2023-04-06T04:02:08.691Z,100645.78
2023-04-06T04:12:11.403Z,100652.00
2023-04-06T04:22:13.705Z,100653.25
2023-04-06T04:32:17.609Z,100644.91
2023-04-06T04:42:21.837Z,100648.16
2023-04-06T04:52:27.837Z,100647.06
2023-04-06T05:02:36.858Z,100640.81
2023-04-06T05:12:58.687Z,100640.44
2023-04-06T05:23:02.788Z,100632.75
2023-04-06T05:33:07.087Z,100631.13
2023-04-06T05:43:26.168Z,100612.78
2023-04-06T05:53:31.758Z,100623.88
2023-04-06T06:03:35.989Z,100628.88
2023-04-06T06:13:38.686Z,100624.97
2023-04-06T06:23:43.051Z,100622.16
2023-04-06T06:33:51.237Z,100623.81
2023-04-06T06:43:55.508Z,100627.75
2023-04-06T06:53:58.056Z,100629.84
2023-04-06T07:04:00.305Z,100617.91
2023-04-06T07:14:03.435Z,100614.78
2023-04-06T07:24:05.926Z,100614.28
2023-04-06T07:34:08.302Z,100613.34
2023-04-06T07:44:11.121Z,100600.34
2023-04-06T07:54:14.466Z,100597.44
2023-04-06T08:04:16.871Z,100594.44
2023-04-06T08:14:19.183Z,100593.81
2023-04-06T08:24:21.378Z,100596.88
2023-04-06T08:34:23.983Z,100577.38
2023-04-06T08:44:26.242Z,100574.91
2023-04-06T08:54:28.608Z,100567.16
2023-04-06T09:04:30.910Z,100561.72
2023-04-06T09:14:39.914Z,100565.19
2023-04-06T09:24:53.339Z,100550.63
2023-04-06T09:34:55.487Z,100545.16
2023-04-06T09:44:57.718Z,100549.53
2023-04-06T09:55:05.335Z,100537.59
2023-04-06T10:05:17.268Z,100541.44
2023-04-06T10:15:22.433Z,100530.84
2023-04-06T10:25:32.813Z,100533.47
2023-04-06T10:35:39.626Z,100544.38
2023-04-06T10:45:44.039Z,100516.91
2023-04-06T10:55:46.476Z,100518.19
2023-04-06T11:05:50.241Z,100510.22
2023-04-06T11:15:52.392Z,100504.06
2023-04-06T11:25:55.312Z,100502.91
2023-04-06T11:36:00.773Z,100481.16
2023-04-06T11:46:05.312Z,100483.19
2023-04-06T11:56:07.786Z,100470.00
2023-04-06T12:06:09.858Z,100462.94
2023-04-06T12:16:12.176Z,100456.47
2023-04-06T12:26:14.375Z,100457.31
2023-04-06T12:36:20.146Z,100460.16
2023-04-06T12:46:23.269Z,100449.97
2023-04-06T12:56:27.916Z,100444.56
2023-04-06T13:06:30.247Z,100436.78
2023-04-06T13:16:36.430Z,100431.00
2023-04-06T13:26:38.564Z,100429.88
2023-04-06T13:36:42.750Z,100420.53
2023-04-06T13:46:44.938Z,100421.97
2023-04-06T13:56:47.026Z,100434.16
2023-04-06T14:06:53.322Z,100426.25
2023-04-06T14:16:59.979Z,100438.94
2023-04-06T14:27:04.835Z,100430.03
2023-04-06T14:37:07.311Z,100435.72
2023-04-06T14:47:10.681Z,100439.25
2023-04-06T14:57:12.753Z,100425.00
2023-04-06T15:07:15.719Z,100428.81
2023-04-06T15:17:18.126Z,100437.59
2023-04-06T15:27:20.863Z,100438.59
2023-04-06T15:37:22.989Z,100449.72
2023-04-06T15:47:25.667Z,100454.34
2023-04-06T15:57:27.831Z,100447.03
2023-04-06T16:07:31.796Z,100452.00
2023-04-06T16:17:36.006Z,100460.88
2023-04-06T16:27:38.920Z,100459.63
2023-04-06T16:38:06.716Z,100460.28
2023-04-06T16:48:12.078Z,100456.03
2023-04-06T16:58:15.575Z,100463.59
2023-04-06T17:18:53.327Z,100476.28
2023-04-06T17:28:55.458Z,100484.69
2023-04-06T17:38:57.877Z,100493.13
2023-04-06T17:59:36.364Z,100503.34
2023-04-06T18:09:39.287Z,100496.22
2023-04-06T18:19:41.511Z,100492.84
2023-04-06T18:29:47.543Z,100497.97
2023-04-06T18:39:49.660Z,100489.63
2023-04-06T18:49:51.721Z,100486.69
2023-04-06T18:59:55.509Z,100481.38
2023-04-06T19:09:58.188Z,100478.38
2023-04-06T19:20:02.424Z,100468.34
2023-04-06T19:30:05.655Z,100464.03
2023-04-06T19:40:10.415Z,100460.88
2023-04-06T19:50:12.984Z,100447.66
2023-04-06T20:00:16.279Z,100445.38
2023-04-06T20:10:19.559Z,100442.78
2023-04-06T20:20:21.672Z,100430.16
2023-04-06T20:30:23.814Z,100415.44
2023-04-06T20:40:25.852Z,100419.13
2023-04-06T20:50:27.958Z,100415.13
2023-04-06T21:00:30.145Z,100412.06
2023-04-06T21:10:32.900Z,100399.69
2023-04-06T21:20:35.473Z,100379.53
2023-04-06T21:30:37.750Z,100373.75
2023-04-06T21:40:39.915Z,100361.91
2023-04-06T21:50:42.058Z,100367.84
2023-04-06T22:00:44.495Z,100363.50
2023-04-06T22:10:46.593Z,100351.75
2023-04-06T22:20:48.653Z,100345.94
2023-04-06T22:30:50.748Z,100339.28
2023-04-06T22:40:52.852Z,100339.19
2023-04-06T22:50:56.017Z,100340.63
2023-04-06T23:00:58.135Z,100335.56
2023-04-06T23:11:00.447Z,100318.81
2023-04-06T23:21:02.532Z,100322.78
2023-04-06T23:31:04.608Z,100321.09
2023-04-06T23:41:06.714Z,100332.53
2023-04-06T23:51:08.969Z,100323.06
